createdAt,value
2022-12-13T00:00:33.330Z,99903.00
2022-12-13T00:01:36.060Z,99902.16
2022-12-13T00:02:37.565Z,99906.78
2022-12-13T00:03:39.056Z,99896.84
2022-12-13T00:04:40.624Z,99896.00
2022-12-13T00:05:45.242Z,99892.41
2022-12-13T00:06:46.828Z,99894.31
2022-12-13T00:07:48.371Z,99891.78
2022-12-13T00:08:49.978Z,99892.63
2022-12-13T00:09:51.654Z,99887.38
2022-12-13T00:11:00.314Z,99884.63
2022-12-13T00:12:01.773Z,99886.72
2022-12-13T00:13:04.529Z,99885.03
2022-12-13T00:14:06.062Z,99890.75
2022-12-13T00:15:07.879Z,99885.47
2022-12-13T00:16:13.157Z,99886.31
2022-12-13T00:17:14.675Z,99885.47
2022-12-13T00:18:16.121Z,99890.09
2022-12-13T00:19:17.823Z,99882.72
2022-12-13T00:20:19.589Z,99892.19
2022-12-13T00:21:21.517Z,99883.97
2022-12-13T00:22:23.053Z,99885.84
2022-12-13T00:23:24.625Z,99884.19
2022-12-13T00:24:26.117Z,99880.81
2022-12-13T00:25:27.589Z,99879.97
2022-12-13T00:26:29.751Z,99874.47
2022-12-13T00:27:31.216Z,99869.84
2022-12-13T00:28:32.848Z,99874.69
2022-12-13T00:29:34.342Z,99875.75
2022-12-13T00:30:35.883Z,99871.53
2022-12-13T00:32:00.068Z,99879.13
2022-12-13T00:32:59.487Z,99879.28
2022-12-13T00:34:00.961Z,99875.72
2022-12-13T00:35:02.455Z,99870.44
2022-12-13T00:36:04.514Z,99868.53
2022-12-13T00:37:06.022Z,99866.63
2022-12-13T00:38:07.483Z,99867.69
2022-12-13T00:39:12.715Z,99872.13
2022-12-13T00:40:14.272Z,99868.53
2022-12-13T00:41:17.249Z,99867.69
2022-12-13T00:42:18.773Z,99869.81
2022-12-13T00:43:20.255Z,99859.69
2022-12-13T00:44:21.790Z,99861.38
2022-12-13T00:45:23.302Z,99866.84
2022-12-13T00:46:24.867Z,99862.22
2022-12-13T00:47:26.417Z,99866.00
2022-12-13T00:48:28.551Z,99862.22
2022-12-13T00:49:29.996Z,99861.38
2022-12-13T00:50:31.657Z,99864.97
2022-12-13T00:51:33.685Z,99864.97
2022-12-13T00:52:35.195Z,99861.38
2022-12-13T00:53:36.747Z,99861.38
2022-12-13T00:54:38.329Z,99863.06
2022-12-13T00:55:42.483Z,99862.44
2022-12-13T00:56:43.946Z,99859.69
2022-12-13T00:57:45.441Z,99855.91
2022-12-13T00:58:51.642Z,99852.31
2022-12-13T00:59:53.806Z,99856.28
2022-12-13T01:01:02.394Z,99858.19
2022-12-13T01:02:03.933Z,99861.13
2022-12-13T01:03:20.470Z,99863.88
2022-12-13T01:04:22.211Z,99854.81
2022-12-13T01:06:02.234Z,99857.97
2022-12-13T01:06:45.800Z,99855.22
2022-12-13T01:07:47.895Z,99853.13
2022-12-13T01:08:49.443Z,99850.38
2022-12-13T01:09:51.074Z,99847.44
2022-12-13T01:10:52.584Z,99850.16
2022-12-13T01:12:00.434Z,99850.16
2022-12-13T01:13:01.903Z,99853.75
2022-12-13T01:14:03.957Z,99853.75
2022-12-13T01:15:05.806Z,99849.13
2022-12-13T01:16:08.370Z,99859.44
2022-12-13T01:17:10.073Z,99850.38
2022-12-13T01:18:11.804Z,99858.59
2022-12-13T01:19:13.376Z,99850.38
2022-12-13T01:20:14.822Z,99855.03
2022-12-13T01:21:17.149Z,99850.59
2022-12-13T01:22:18.626Z,99864.09
2022-12-13T01:23:20.076Z,99861.34
2022-12-13T01:24:22.976Z,99869.56
2022-12-13T01:25:24.457Z,99861.34
2022-12-13T01:26:26.686Z,99859.66
2022-12-13T01:27:28.163Z,99863.25
2022-12-13T01:28:29.730Z,99864.28
2022-12-13T01:29:31.209Z,99860.91
2022-12-13T01:30:32.807Z,99871.03
2022-12-13T01:31:34.434Z,99860.50
2022-12-13T01:32:36.076Z,99860.50
2022-12-13T01:33:37.602Z,99856.91
2022-12-13T01:34:39.233Z,99863.44
2022-12-13T01:35:40.711Z,99875.44
2022-12-13T01:36:42.786Z,99854.56
2022-12-13T01:37:44.319Z,99858.34
2022-12-13T01:38:45.777Z,99861.94
2022-12-13T01:39:47.265Z,99860.03
2022-12-13T01:40:49.835Z,99856.47
2022-12-13T01:41:51.820Z,99860.03
2022-12-13T01:42:53.278Z,99860.25
2022-12-13T01:44:01.140Z,99856.03
2022-12-13T01:45:04.614Z,99857.09
2022-12-13T01:46:06.102Z,99857.28
2022-12-13T01:47:07.590Z,99859.19
2022-12-13T01:48:11.382Z,99855.59
2022-12-13T01:49:19.602Z,99857.50
2022-12-13T01:50:23.450Z,99854.75
2022-12-13T01:51:35.779Z,99852.22
2022-12-13T01:52:37.275Z,99855.81
2022-12-13T01:53:39.251Z,99850.34
2022-12-13T01:54:46.791Z,99856.88
2022-12-13T01:55:50.411Z,99845.06
2022-12-13T01:56:53.348Z,99846.94
2022-12-13T01:58:02.593Z,99849.66
2022-12-13T01:59:04.298Z,99845.25
2022-12-13T02:00:06.237Z,99849.88
2022-12-13T02:01:08.848Z,99852.63
2022-12-13T02:02:11.006Z,99846.28
2022-12-13T02:03:21.255Z,99847.34
2022-12-13T02:04:26.004Z,99844.81
2022-12-13T02:05:42.286Z,99845.88
2022-12-13T02:06:44.234Z,99839.56
2022-12-13T02:07:45.700Z,99847.78
2022-12-13T02:08:47.294Z,99843.34
2022-12-13T02:09:49.000Z,99837.03
2022-12-13T02:10:58.279Z,99838.06
2022-12-13T02:11:59.971Z,99843.56
2022-12-13T02:13:01.588Z,99839.97
2022-12-13T02:14:03.613Z,99842.91
2022-12-13T02:15:11.673Z,99839.34
2022-12-13T02:16:24.776Z,99833.00
2022-12-13T02:17:28.243Z,99837.66
2022-12-13T02:18:35.708Z,99845.00
2022-12-13T02:19:55.411Z,99840.78
2022-12-13T02:20:56.895Z,99845.19
2022-12-13T02:22:07.041Z,99834.44
2022-12-13T02:23:17.345Z,99838.88
2022-12-13T02:24:37.433Z,99837.19
2022-12-13T02:25:44.140Z,99841.63
2022-12-13T02:26:47.732Z,99840.13
2022-12-13T02:28:31.872Z,99832.13
2022-12-13T02:29:48.284Z,99838.44
2022-12-13T02:30:53.270Z,99842.25
2022-12-13T02:32:00.771Z,99832.97
2022-12-13T02:33:07.042Z,99823.66
2022-12-13T02:34:09.567Z,99832.97
2022-12-13T02:35:12.186Z,99841.59
2022-12-13T02:36:28.700Z,99842.66
2022-12-13T02:37:38.204Z,99848.97
2022-12-13T02:38:44.898Z,99843.28
2022-12-13T02:39:50.629Z,99840.56
2022-12-13T02:40:55.333Z,99834.03
2022-12-13T02:42:05.954Z,99842.25
2022-12-13T02:43:09.080Z,99842.25
2022-12-13T02:44:22.841Z,99840.13
2022-12-13T02:45:27.994Z,99832.97
2022-12-13T02:46:29.970Z,99832.97
2022-12-13T02:47:31.556Z,99836.56
2022-12-13T02:48:34.252Z,99831.28
2022-12-13T02:49:38.841Z,99836.13
2022-12-13T02:50:40.308Z,99835.06
2022-12-13T02:51:41.840Z,99836.75
2022-12-13T02:52:46.397Z,99827.50
2022-12-13T02:53:47.954Z,99828.34
2022-12-13T02:54:49.459Z,99829.19
2022-12-13T02:55:52.546Z,99823.72
2022-12-13T02:56:57.189Z,99831.28
2022-12-13T02:57:58.644Z,99827.50
2022-12-13T02:59:00.923Z,99835.06
2022-12-13T03:00:06.728Z,99829.59
2022-12-13T03:01:28.488Z,99832.97
2022-12-13T03:02:31.310Z,99829.19
2022-12-13T03:03:53.448Z,99827.50
2022-12-13T03:05:22.772Z,99835.06
2022-12-13T03:06:33.434Z,99835.06
2022-12-13T03:07:39.546Z,99830.66
2022-12-13T03:08:44.205Z,99830.44
2022-12-13T03:10:05.980Z,99835.06
2022-12-13T03:11:14.351Z,99829.59
2022-12-13T03:12:40.429Z,99832.34
2022-12-13T03:13:45.161Z,99828.56
2022-12-13T03:14:49.673Z,99823.91
2022-12-13T03:15:53.487Z,99823.91
2022-12-13T03:16:54.996Z,99824.56
2022-12-13T03:17:59.216Z,99831.91
2022-12-13T03:19:01.305Z,99828.13
2022-12-13T03:20:03.876Z,99822.22
2022-12-13T03:21:14.438Z,99826.66
2022-12-13T03:22:17.145Z,99820.34
2022-12-13T03:23:19.049Z,99825.41
2022-12-13T03:24:20.810Z,99819.06
2022-12-13T03:25:31.756Z,99823.06
2022-12-13T03:26:34.127Z,99823.72
2022-12-13T03:27:35.655Z,99827.28
2022-12-13T03:28:37.340Z,99823.50
2022-12-13T03:29:38.788Z,99816.13
2022-12-13T03:30:40.338Z,99820.97
2022-12-13T03:31:41.849Z,99821.38
2022-12-13T03:32:43.449Z,99828.75
2022-12-13T03:33:44.992Z,99825.19
2022-12-13T03:34:50.845Z,99831.28
2022-12-13T03:36:02.093Z,99823.28
2022-12-13T03:37:03.582Z,99829.59
2022-12-13T03:38:05.595Z,99825.19
2022-12-13T03:39:07.073Z,99828.56
2022-12-13T03:40:08.770Z,99825.81
2022-12-13T03:41:11.043Z,99821.38
2022-12-13T03:42:12.560Z,99824.13
2022-12-13T03:43:14.025Z,99814.84
2022-12-13T03:44:24.011Z,99828.56
2022-12-13T03:45:33.123Z,99824.13
2022-12-13T03:46:34.814Z,99821.59
2022-12-13T03:47:36.439Z,99828.13
2022-12-13T03:48:38.025Z,99817.16
2022-12-13T03:49:39.850Z,99811.91
2022-12-13T03:50:41.289Z,99811.91
2022-12-13T03:51:43.426Z,99817.38
2022-12-13T03:52:44.935Z,99826.63
2022-12-13T03:53:46.423Z,99817.38
2022-12-13T03:54:48.083Z,99820.13
2022-12-13T03:55:49.544Z,99824.53
2022-12-13T03:56:51.019Z,99820.13
2022-12-13T03:57:52.545Z,99819.06
2022-12-13T03:58:54.160Z,99796.91
2022-12-13T03:59:55.726Z,99820.75
2022-12-13T04:00:57.251Z,99819.06
2022-12-13T04:01:58.746Z,99820.13
2022-12-13T04:03:00.365Z,99823.69
2022-12-13T04:04:01.919Z,99819.06
2022-12-13T04:05:03.461Z,99817.75
2022-12-13T04:06:05.058Z,99818.81
2022-12-13T04:07:06.567Z,99818.81
2022-12-13T04:08:24.256Z,99813.34
2022-12-13T04:09:25.809Z,99809.34
2022-12-13T04:10:27.467Z,99808.50
2022-12-13T04:11:47.311Z,99818.41
2022-12-13T04:13:24.435Z,99808.50
2022-12-13T04:14:26.029Z,99812.91
2022-12-13T04:15:27.523Z,99805.13
2022-12-13T04:16:29.013Z,99805.97
2022-12-13T04:17:30.552Z,99805.97
2022-12-13T04:18:32.032Z,99803.44
2022-12-13T04:19:33.517Z,99809.97
2022-12-13T04:20:35.198Z,99808.91
2022-12-13T04:21:38.250Z,99803.44
2022-12-13T04:22:39.685Z,99808.91
2022-12-13T04:23:41.254Z,99806.38
2022-12-13T04:24:43.709Z,99812.06
2022-12-13T04:25:45.250Z,99804.91
2022-12-13T04:26:46.744Z,99802.16
2022-12-13T04:27:48.222Z,99813.97
2022-12-13T04:28:54.459Z,99803.00
2022-12-13T04:29:56.474Z,99804.69
2022-12-13T04:30:57.938Z,99809.13
2022-12-13T04:31:59.487Z,99800.91
2022-12-13T04:33:01.014Z,99812.69
2022-12-13T04:34:02.548Z,99812.69
2022-12-13T04:35:04.239Z,99811.88
2022-12-13T04:36:05.888Z,99814.59
2022-12-13T04:37:07.559Z,99815.44
2022-12-13T04:38:09.041Z,99818.19
2022-12-13T04:39:21.921Z,99813.53
2022-12-13T04:40:24.355Z,99818.19
2022-12-13T04:41:25.827Z,99811.03
2022-12-13T04:42:36.033Z,99813.75
2022-12-13T04:43:37.511Z,99808.06
2022-12-13T04:44:41.189Z,99814.38
2022-12-13T04:45:46.315Z,99809.75
2022-12-13T04:46:47.838Z,99815.22
2022-12-13T04:47:49.887Z,99813.53
2022-12-13T04:48:51.374Z,99814.59
2022-12-13T04:49:52.874Z,99816.50
2022-12-13T04:50:54.387Z,99811.03
2022-12-13T04:52:00.499Z,99818.16
2022-12-13T04:53:02.776Z,99809.75
2022-12-13T04:54:23.599Z,99813.31
2022-12-13T04:55:25.753Z,99812.06
2022-12-13T04:56:27.302Z,99818.59
2022-12-13T04:57:28.861Z,99817.53
2022-12-13T04:58:30.409Z,99813.13
2022-12-13T04:59:31.880Z,99813.13
2022-12-13T05:00:33.353Z,99813.13
2022-12-13T05:01:34.889Z,99807.66
2022-12-13T05:02:36.431Z,99809.75
2022-12-13T05:03:38.302Z,99812.28
2022-12-13T05:04:39.868Z,99808.06
2022-12-13T05:05:41.359Z,99798.34
2022-12-13T05:06:42.881Z,99798.34
2022-12-13T05:07:44.475Z,99805.72
2022-12-13T05:08:45.979Z,99803.81
2022-12-13T05:09:47.466Z,99799.59
2022-12-13T05:10:48.980Z,99808.88
2022-12-13T05:11:50.506Z,99808.88
2022-12-13T05:12:51.991Z,99804.84
2022-12-13T05:13:53.431Z,99808.22
2022-12-13T05:14:54.931Z,99814.34
2022-12-13T05:16:00.410Z,99810.53
2022-12-13T05:17:02.054Z,99813.91
2022-12-13T05:18:10.425Z,99813.91
2022-12-13T05:19:12.442Z,99818.56
2022-12-13T05:20:13.996Z,99810.53
2022-12-13T05:21:15.566Z,99816.88
2022-12-13T05:22:20.328Z,99821.28
2022-12-13T05:23:23.495Z,99816.88
2022-12-13T05:24:25.021Z,99813.91
2022-12-13T05:25:26.494Z,99814.75
2022-12-13T05:26:28.280Z,99808.44
2022-12-13T05:27:29.805Z,99804.66
2022-12-13T05:28:31.624Z,99809.50
2022-12-13T05:29:33.104Z,99807.81
2022-12-13T05:30:34.696Z,99808.00
2022-12-13T05:31:36.458Z,99802.53
2022-12-13T05:32:44.288Z,99804.22
2022-12-13T05:33:46.401Z,99803.81
2022-12-13T05:34:48.317Z,99807.59
2022-12-13T05:35:49.855Z,99804.38
2022-12-13T05:36:51.462Z,99803.97
2022-12-13T05:37:54.067Z,99810.06
2022-12-13T05:38:56.517Z,99810.06
2022-12-13T05:39:58.087Z,99815.53
2022-12-13T05:40:59.578Z,99811.97
2022-12-13T05:42:02.073Z,99818.28
2022-12-13T05:43:04.076Z,99809.88
2022-12-13T05:44:23.132Z,99816.38
2022-12-13T05:45:24.781Z,99813.84
2022-12-13T05:46:26.296Z,99804.59
2022-12-13T05:47:27.802Z,99802.91
2022-12-13T05:48:29.278Z,99804.59
2022-12-13T05:49:31.018Z,99800.19
2022-12-13T05:50:32.621Z,99799.53
2022-12-13T05:51:34.297Z,99794.06
2022-12-13T05:52:35.743Z,99787.53
2022-12-13T05:53:37.416Z,99790.50
2022-12-13T05:54:38.968Z,99780.16
2022-12-13T05:55:44.541Z,99783.75
2022-12-13T05:56:46.128Z,99780.97
2022-12-13T05:57:50.323Z,99789.81
2022-12-13T05:58:54.161Z,99791.06
2022-12-13T05:59:56.682Z,99795.06
2022-12-13T06:01:04.500Z,99804.53
2022-12-13T06:02:06.242Z,99796.97
2022-12-13T06:03:08.021Z,99791.50
2022-12-13T06:04:09.718Z,99791.50
2022-12-13T06:05:11.232Z,99791.31
2022-12-13T06:06:13.482Z,99790.47
2022-12-13T06:07:14.986Z,99791.94
2022-12-13T06:08:24.454Z,99798.00
2022-12-13T06:09:26.865Z,99794.00
2022-12-13T06:10:35.015Z,99798.84
2022-12-13T06:11:43.424Z,99803.25
2022-12-13T06:12:45.147Z,99795.88
2022-12-13T06:13:49.758Z,99804.72
2022-12-13T06:14:51.221Z,99803.25
2022-12-13T06:15:52.882Z,99809.38
2022-12-13T06:17:03.511Z,99811.25
2022-12-13T06:18:05.025Z,99806.81
2022-12-13T06:19:06.474Z,99807.47
2022-12-13T06:20:23.535Z,99802.81
2022-12-13T06:21:26.229Z,99814.16
2022-12-13T06:22:27.854Z,99809.94
2022-12-13T06:23:30.688Z,99808.25
2022-12-13T06:24:32.149Z,99806.81
2022-12-13T06:25:33.628Z,99812.53
2022-12-13T06:26:35.106Z,99803.25
2022-12-13T06:27:36.600Z,99800.53
2022-12-13T06:28:38.044Z,99803.25
2022-12-13T06:29:39.692Z,99804.31
2022-12-13T06:30:42.625Z,99797.78
2022-12-13T06:31:44.388Z,99794.00
2022-12-13T06:32:48.498Z,99797.16
2022-12-13T06:33:50.319Z,99798.63
2022-12-13T06:34:51.822Z,99793.38
2022-12-13T06:35:55.748Z,99799.88
2022-12-13T06:36:57.404Z,99805.34
2022-12-13T06:38:01.131Z,99802.63
2022-12-13T06:39:03.954Z,99802.41
2022-12-13T06:40:05.722Z,99790.00
2022-12-13T06:41:10.653Z,99795.19
2022-12-13T06:42:21.678Z,99797.31
2022-12-13T06:43:24.355Z,99804.44
2022-12-13T06:44:25.866Z,99807.38
2022-12-13T06:45:27.322Z,99807.97
2022-12-13T06:46:28.888Z,99808.16
2022-12-13T06:47:32.635Z,99801.84
2022-12-13T06:48:34.262Z,99799.97
2022-12-13T06:49:35.760Z,99799.56
2022-12-13T06:50:37.239Z,99806.72
2022-12-13T06:51:38.851Z,99798.50
2022-12-13T06:52:40.406Z,99813.44
2022-12-13T06:53:41.854Z,99809.44
2022-12-13T06:54:43.474Z,99806.91
2022-12-13T06:55:45.023Z,99791.34
2022-12-13T06:56:46.549Z,99803.09
2022-12-13T06:57:48.103Z,99798.47
2022-12-13T06:58:49.638Z,99801.00
2022-12-13T06:59:51.075Z,99797.22
2022-12-13T07:01:00.537Z,99793.84
2022-12-13T07:02:04.129Z,99805.03
2022-12-13T07:03:05.870Z,99811.16
2022-12-13T07:04:29.857Z,99807.59
2022-12-13T07:05:30.706Z,99815.59
2022-12-13T07:06:32.189Z,99820.66
2022-12-13T07:07:33.695Z,99815.81
2022-12-13T07:08:36.078Z,99816.88
2022-12-13T07:09:37.570Z,99819.59
2022-12-13T07:10:39.393Z,99821.94
2022-12-13T07:11:40.887Z,99822.97
2022-12-13T07:12:42.345Z,99810.13
2022-12-13T07:13:43.897Z,99811.38
2022-12-13T07:14:45.382Z,99809.50
2022-12-13T07:15:47.139Z,99809.50
2022-12-13T07:16:48.643Z,99797.50
2022-12-13T07:17:50.732Z,99797.91
2022-12-13T07:19:01.353Z,99799.81
2022-12-13T07:20:07.999Z,99807.81
2022-12-13T07:21:22.299Z,99805.91
2022-12-13T07:22:24.010Z,99810.78
2022-12-13T07:23:25.506Z,99809.28
2022-12-13T07:24:26.994Z,99805.72
2022-12-13T07:25:29.751Z,99816.22
2022-12-13T07:26:31.445Z,99820.66
2022-12-13T07:27:33.135Z,99819.53
2022-12-13T07:28:35.163Z,99821.25
2022-12-13T07:29:37.158Z,99831.78
2022-12-13T07:30:40.619Z,99825.06
2022-12-13T07:31:43.077Z,99826.75
2022-12-13T07:32:44.578Z,99833.91
2022-12-13T07:33:46.066Z,99830.97
2022-12-13T07:34:47.766Z,99832.66
2022-12-13T07:35:55.384Z,99830.97
2022-12-13T07:36:57.142Z,99836.91
2022-12-13T07:37:58.941Z,99846.41
2022-12-13T07:39:00.441Z,99839.03
2022-12-13T07:40:04.199Z,99843.41
2022-12-13T07:41:06.079Z,99836.03
2022-12-13T07:42:07.575Z,99843.03
2022-12-13T07:43:09.280Z,99832.31
2022-12-13T07:44:10.778Z,99846.63
2022-12-13T07:45:12.284Z,99836.16
2022-12-13T07:46:13.837Z,99832.78
2022-12-13T07:47:15.332Z,99833.66
2022-12-13T07:48:16.796Z,99828.66
2022-12-13T07:49:18.420Z,99829.72
2022-12-13T07:50:25.243Z,99828.66
2022-12-13T07:51:27.281Z,99831.22
2022-12-13T07:52:28.835Z,99823.25
2022-12-13T07:53:33.439Z,99824.13
2022-12-13T07:54:35.139Z,99834.25
2022-12-13T07:55:37.282Z,99826.28
2022-12-13T07:56:38.743Z,99823.34
2022-12-13T07:57:40.589Z,99826.06
2022-12-13T07:58:42.425Z,99826.31
2022-12-13T07:59:43.925Z,99832.25
2022-12-13T08:00:46.241Z,99831.81
2022-12-13T08:01:48.278Z,99829.31
2022-12-13T08:02:49.813Z,99825.13
2022-12-13T08:03:51.314Z,99831.44
2022-12-13T08:04:54.727Z,99824.09
2022-12-13T08:06:09.781Z,99825.34
2022-12-13T08:07:11.270Z,99826.84
2022-12-13T08:08:12.864Z,99827.88
2022-12-13T08:09:14.345Z,99830.00
2022-12-13T08:10:15.810Z,99832.94
2022-12-13T08:11:17.447Z,99834.84
2022-12-13T08:12:22.461Z,99844.56
2022-12-13T08:13:24.605Z,99846.47
2022-12-13T08:14:26.261Z,99844.75
2022-12-13T08:15:28.103Z,99842.47
2022-12-13T08:16:30.180Z,99836.13
2022-12-13T08:17:32.003Z,99834.66
2022-12-13T08:18:33.728Z,99826.84
2022-12-13T08:19:35.240Z,99829.59
2022-12-13T08:20:37.611Z,99828.53
2022-12-13T08:21:56.774Z,99829.38
2022-12-13T08:23:03.095Z,99839.47
2022-12-13T08:24:05.536Z,99838.22
2022-12-13T08:25:07.593Z,99839.91
2022-12-13T08:26:09.044Z,99829.78
2022-12-13T08:27:10.703Z,99828.09
2022-12-13T08:28:12.154Z,99833.56
2022-12-13T08:29:13.603Z,99831.47
2022-12-13T08:30:25.126Z,99823.84
2022-12-13T08:31:26.653Z,99814.59
2022-12-13T08:32:35.607Z,99834.84
2022-12-13T08:33:37.134Z,99835.28
2022-12-13T08:34:38.820Z,99837.81
2022-12-13T08:35:40.334Z,99837.78
2022-12-13T08:36:42.835Z,99837.59
2022-12-13T08:37:44.301Z,99839.69
2022-12-13T08:38:45.813Z,99834.63
2022-12-13T08:39:47.325Z,99835.69
2022-12-13T08:40:48.785Z,99832.94
2022-12-13T08:41:53.120Z,99831.03
2022-12-13T08:42:55.060Z,99836.28
2022-12-13T08:43:56.685Z,99833.53
2022-12-13T08:44:58.328Z,99825.53
2022-12-13T08:46:01.452Z,99836.06
2022-12-13T08:47:03.125Z,99832.25
2022-12-13T08:48:05.027Z,99832.84
2022-12-13T08:49:06.508Z,99836.44
2022-12-13T08:50:08.273Z,99831.34
2022-12-13T08:51:11.824Z,99830.47
2022-12-13T08:52:13.297Z,99834.66
2022-12-13T08:53:29.448Z,99833.38
2022-12-13T08:54:35.513Z,99846.47
2022-12-13T08:55:37.013Z,99838.41
2022-12-13T08:56:38.474Z,99837.75
2022-12-13T08:57:40.688Z,99850.81
2022-12-13T08:58:42.191Z,99847.44
2022-12-13T08:59:43.668Z,99836.19
2022-12-13T09:00:46.341Z,99841.44
2022-12-13T09:01:48.075Z,99835.72
2022-12-13T09:02:59.061Z,99836.31
2022-12-13T09:04:00.617Z,99835.81
2022-12-13T09:05:03.318Z,99833.41
2022-12-13T09:06:08.368Z,99839.31
2022-12-13T09:07:09.880Z,99833.75
2022-12-13T09:08:24.632Z,99838.41
2022-12-13T09:09:27.898Z,99836.72
2022-12-13T09:10:29.840Z,99828.72
2022-12-13T09:11:40.948Z,99842.72
2022-12-13T09:12:42.982Z,99834.94
2022-12-13T09:13:45.394Z,99844.41
2022-12-13T09:14:46.983Z,99844.38
2022-12-13T09:15:48.803Z,99842.63
2022-12-13T09:16:51.635Z,99837.94
2022-12-13T09:17:53.905Z,99842.22
2022-12-13T09:18:56.112Z,99839.47
2022-12-13T09:19:58.836Z,99843.91
2022-12-13T09:21:10.710Z,99846.03
2022-12-13T09:22:14.473Z,99841.56
2022-12-13T09:23:24.051Z,99843.00
2022-12-13T09:24:26.241Z,99841.03
2022-12-13T09:25:27.748Z,99846.78
2022-12-13T09:26:29.218Z,99843.38
2022-12-13T09:27:40.145Z,99846.53
2022-12-13T09:28:41.770Z,99840.13
2022-12-13T09:29:44.420Z,99839.69
2022-12-13T09:30:45.941Z,99843.22
2022-12-13T09:31:52.899Z,99833.91
2022-12-13T09:32:55.827Z,99838.53
2022-12-13T09:33:57.485Z,99847.53
2022-12-13T09:34:59.170Z,99846.44
2022-12-13T09:36:01.738Z,99841.44
2022-12-13T09:37:03.502Z,99847.59
2022-12-13T09:38:05.206Z,99831.75
2022-12-13T09:39:06.742Z,99843.38
2022-12-13T09:40:16.318Z,99838.66
2022-12-13T09:42:00.943Z,99838.13
2022-12-13T09:43:12.812Z,99829.16
2022-12-13T09:44:32.445Z,99833.69
2022-12-13T09:45:34.820Z,99849.06
2022-12-13T09:46:45.536Z,99834.75
2022-12-13T09:47:47.737Z,99836.28
2022-12-13T09:48:49.921Z,99845.97
2022-12-13T09:49:52.985Z,99835.59
2022-12-13T09:51:15.940Z,99838.75
2022-12-13T09:52:21.715Z,99833.13
2022-12-13T09:53:23.767Z,99839.44
2022-12-13T09:54:25.355Z,99828.28
2022-12-13T09:55:30.288Z,99825.88
2022-12-13T09:56:31.868Z,99841.00
2022-12-13T09:57:34.424Z,99828.75
2022-12-13T09:58:37.312Z,99828.16
2022-12-13T09:59:40.707Z,99828.94
2022-12-13T10:00:42.561Z,99822.69
2022-12-13T10:01:44.470Z,99830.41
2022-12-13T10:02:52.937Z,99822.69
2022-12-13T10:03:54.557Z,99828.03
2022-12-13T10:05:21.951Z,99819.78
2022-12-13T10:06:28.573Z,99815.28
2022-12-13T10:07:30.055Z,99818.19
2022-12-13T10:08:41.267Z,99818.19
2022-12-13T10:09:42.987Z,99811.13
2022-12-13T10:10:45.426Z,99812.16
2022-12-13T10:11:50.608Z,99818.22
2022-12-13T10:13:12.763Z,99799.09
2022-12-13T10:14:18.788Z,99797.41
2022-12-13T10:15:22.107Z,99799.56
2022-12-13T10:16:36.155Z,99793.84
2022-12-13T10:17:39.024Z,99794.00
2022-12-13T10:18:41.164Z,99800.72
2022-12-13T10:19:46.570Z,99795.06
2022-12-13T10:20:48.670Z,99796.38
2022-12-13T10:21:51.426Z,99795.28
2022-12-13T10:23:30.090Z,99789.72
2022-12-13T10:24:36.354Z,99788.50
2022-12-13T10:25:46.520Z,99778.66
2022-12-13T10:26:52.740Z,99785.03
2022-12-13T10:27:54.250Z,99784.34
2022-12-13T10:29:02.058Z,99783.97
2022-12-13T10:30:13.314Z,99789.00
2022-12-13T10:31:18.493Z,99786.69
2022-12-13T10:32:20.021Z,99785.97
2022-12-13T10:33:25.031Z,99778.88
2022-12-13T10:34:30.014Z,99781.75
2022-12-13T10:35:35.002Z,99781.16
2022-12-13T10:36:38.404Z,99758.09
2022-12-13T10:37:40.388Z,99771.09
2022-12-13T10:38:45.872Z,99770.88
2022-12-13T10:39:47.409Z,99768.56
2022-12-13T10:40:49.233Z,99763.75
2022-12-13T10:41:50.991Z,99767.22
2022-12-13T10:43:05.629Z,99761.00
2022-12-13T10:44:07.962Z,99759.34
2022-12-13T10:45:23.261Z,99760.00
2022-12-13T10:46:25.620Z,99758.31
2022-12-13T10:47:27.192Z,99766.69
2022-12-13T10:48:40.755Z,99756.84
2022-12-13T10:49:46.581Z,99766.94
2022-12-13T10:51:07.735Z,99764.16
2022-12-13T10:52:31.374Z,99764.72
2022-12-13T10:53:34.309Z,99762.78
2022-12-13T10:54:38.816Z,99760.25
2022-12-13T10:55:53.546Z,99766.75
2022-12-13T10:56:59.996Z,99765.84
2022-12-13T10:58:07.384Z,99761.34
2022-12-13T10:59:16.552Z,99760.41
2022-12-13T11:00:30.857Z,99763.56
2022-12-13T11:01:32.345Z,99766.63
2022-12-13T11:02:37.636Z,99765.00
2022-12-13T11:03:39.215Z,99765.00
2022-12-13T11:04:40.835Z,99759.69
2022-12-13T11:05:42.558Z,99759.34
2022-12-13T11:06:44.782Z,99762.09
2022-12-13T11:07:47.117Z,99762.91
2022-12-13T11:08:48.654Z,99752.38
2022-12-13T11:09:52.470Z,99754.31
2022-12-13T11:11:03.923Z,99744.88
2022-12-13T11:12:11.073Z,99746.00
2022-12-13T11:13:22.550Z,99735.44
2022-12-13T11:14:31.813Z,99739.88
2022-12-13T11:15:35.032Z,99739.56
2022-12-13T11:16:39.980Z,99741.78
2022-12-13T11:17:46.689Z,99739.25
2022-12-13T11:18:50.936Z,99737.25
2022-12-13T11:19:52.993Z,99734.34
2022-12-13T11:20:57.818Z,99746.94
2022-12-13T11:21:59.381Z,99741.25
2022-12-13T11:23:02.389Z,99733.66
2022-12-13T11:24:05.396Z,99744.50
2022-12-13T11:25:08.447Z,99731.47
2022-12-13T11:26:10.894Z,99732.00
2022-12-13T11:27:21.276Z,99730.81
2022-12-13T11:28:29.296Z,99723.84
2022-12-13T11:29:51.086Z,99727.09
2022-12-13T11:31:01.589Z,99731.53
2022-12-13T11:32:22.979Z,99720.00
2022-12-13T11:33:47.763Z,99717.91
2022-12-13T11:34:53.030Z,99718.97
2022-12-13T11:36:06.531Z,99721.16
2022-12-13T11:37:12.115Z,99714.44
2022-12-13T11:38:16.152Z,99707.78
2022-12-13T11:39:20.198Z,99714.31
2022-12-13T11:40:23.107Z,99715.00
2022-12-13T11:41:31.447Z,99723.50
2022-12-13T11:42:41.287Z,99724.00
2022-12-13T11:44:03.320Z,99726.53
2022-12-13T11:45:23.559Z,99714.59
2022-12-13T11:46:38.831Z,99719.50
2022-12-13T11:48:00.653Z,99711.03
2022-12-13T11:49:03.128Z,99703.91
2022-12-13T11:50:07.246Z,99707.78
2022-12-13T11:51:09.211Z,99702.97
2022-12-13T11:52:15.596Z,99700.72
2022-12-13T11:53:18.897Z,99701.88
2022-12-13T11:54:24.431Z,99702.56
2022-12-13T11:55:28.631Z,99690.97
2022-12-13T11:56:33.782Z,99692.63
2022-12-13T11:57:46.237Z,99691.63
2022-12-13T11:59:16.052Z,99694.47
2022-12-13T12:00:34.445Z,99699.16
2022-12-13T12:01:41.908Z,99695.81
2022-12-13T12:02:44.736Z,99689.13
2022-12-13T12:03:52.838Z,99693.47
2022-12-13T12:04:59.972Z,99692.81
2022-12-13T12:06:05.145Z,99693.31
2022-12-13T12:07:31.997Z,99684.94
2022-12-13T12:08:47.379Z,99685.59
2022-12-13T12:10:15.784Z,99676.81
2022-12-13T12:11:26.384Z,99683.94
2022-12-13T12:12:32.398Z,99682.69
2022-12-13T12:13:51.327Z,99679.16
2022-12-13T12:14:53.433Z,99674.22
2022-12-13T12:15:58.041Z,99676.13
2022-12-13T12:16:59.675Z,99673.78
2022-12-13T12:18:01.149Z,99677.16
2022-12-13T12:19:02.731Z,99678.84
2022-12-13T12:20:05.486Z,99684.38
2022-12-13T12:21:09.401Z,99674.41
2022-12-13T12:22:21.329Z,99675.72
2022-12-13T12:23:45.228Z,99676.75
2022-12-13T12:25:08.733Z,99664.13
2022-12-13T12:26:17.043Z,99671.88
2022-12-13T12:27:22.686Z,99668.19
2022-12-13T12:28:36.587Z,99666.25
2022-12-13T12:29:45.904Z,99660.78
2022-12-13T12:30:47.471Z,99664.72
2022-12-13T12:31:54.827Z,99662.56
2022-12-13T12:33:06.340Z,99663.16
2022-12-13T12:34:08.860Z,99667.41
2022-12-13T12:35:18.455Z,99662.41
2022-12-13T12:36:19.962Z,99659.78
2022-12-13T12:37:21.486Z,99660.53
2022-12-13T12:38:31.993Z,99657.25
2022-12-13T12:39:34.814Z,99653.34